createdAt,value
2022-10-23T00:01:16.571Z,8.32
2022-10-23T00:03:47.516Z,8.50
2022-10-23T00:06:16.194Z,8.02
2022-10-23T00:08:45.252Z,7.75
2022-10-23T00:11:15.759Z,7.50
2022-10-23T00:13:44.031Z,8.60
2022-10-23T00:16:12.906Z,7.68
2022-10-23T00:18:41.389Z,7.80
2022-10-23T00:21:12.766Z,7.72
2022-10-23T00:23:41.601Z,7.82
2022-10-23T00:26:15.180Z,8.25
2022-10-23T00:28:43.969Z,8.30
2022-10-23T00:31:14.681Z,7.75
2022-10-23T00:33:43.689Z,7.55
2022-10-23T00:36:14.886Z,7.85
2022-10-23T00:38:43.188Z,6.90
2022-10-23T00:41:22.466Z,8.18
2022-10-23T00:44:00.425Z,7.97
2022-10-23T00:46:29.049Z,8.77
2022-10-23T00:48:58.386Z,8.73
2022-10-23T00:51:30.672Z,7.93
2022-10-23T00:56:53.110Z,7.90
2022-10-23T00:59:21.106Z,8.40
2022-10-23T01:01:49.495Z,8.43
2022-10-23T01:04:17.792Z,8.60
2022-10-23T01:06:58.759Z,8.57
2022-10-23T01:09:35.051Z,7.75
2022-10-23T01:12:11.580Z,8.10
2022-10-23T01:14:49.450Z,7.70
2022-10-23T01:17:26.924Z,7.85
2022-10-23T01:20:08.495Z,7.80
2022-10-23T01:22:55.593Z,8.65
2022-10-23T01:25:35.110Z,8.15
2022-10-23T01:28:10.098Z,8.73
2022-10-23T01:30:43.959Z,8.98
2022-10-23T01:33:16.264Z,9.05
2022-10-23T01:35:48.635Z,8.65
2022-10-23T01:38:21.067Z,8.55
2022-10-23T01:40:57.663Z,8.23
2022-10-23T01:43:30.975Z,8.50
2022-10-23T01:46:02.888Z,8.20
2022-10-23T01:48:34.523Z,8.15
2022-10-23T01:51:06.444Z,8.23
2022-10-23T01:53:41.284Z,8.57
2022-10-23T01:56:13.376Z,9.00
2022-10-23T01:58:45.326Z,8.05
2022-10-23T02:01:16.107Z,8.97
2022-10-23T02:03:45.981Z,8.18
2022-10-23T02:06:14.124Z,7.82
2022-10-23T02:08:42.473Z,7.25
2022-10-23T02:11:12.328Z,8.07
2022-10-23T02:13:47.033Z,8.50
2022-10-23T02:16:24.376Z,8.63
2022-10-23T02:18:58.663Z,8.38
2022-10-23T02:21:35.305Z,8.35
2022-10-23T02:24:08.616Z,8.40
2022-10-23T02:26:41.776Z,7.95
2022-10-23T02:29:17.135Z,8.50
2022-10-23T02:31:45.278Z,8.18
2022-10-23T02:34:13.422Z,7.68
2022-10-23T02:36:42.263Z,8.13
2022-10-23T02:39:10.748Z,8.23
2022-10-23T02:41:44.226Z,8.23
2022-10-23T02:44:25.827Z,7.63
2022-10-23T02:47:02.062Z,7.60
2022-10-23T02:49:38.107Z,8.07
2022-10-23T02:52:14.398Z,8.02
2022-10-23T02:54:58.359Z,7.70
2022-10-23T02:57:33.423Z,7.20
2022-10-23T03:00:12.102Z,8.07
2022-10-23T03:02:42.636Z,7.55
2022-10-23T03:05:15.079Z,7.47
2022-10-23T03:07:47.242Z,8.77
2022-10-23T03:10:15.422Z,7.78
2022-10-23T03:12:44.101Z,7.45
2022-10-23T03:15:14.241Z,8.13
2022-10-23T03:17:43.638Z,8.13
2022-10-23T03:20:12.555Z,8.45
2022-10-23T03:22:41.212Z,8.20
2022-10-23T03:25:10.367Z,7.57
2022-10-23T03:27:38.679Z,8.35
2022-10-23T03:30:08.166Z,8.20
2022-10-23T03:32:37.774Z,7.57
2022-10-23T03:35:06.780Z,7.45
2022-10-23T03:37:34.841Z,7.88
2022-10-23T03:40:03.166Z,8.23
2022-10-23T03:42:31.202Z,7.55
2022-10-23T03:44:59.251Z,7.38
2022-10-23T03:47:27.291Z,7.80
2022-10-23T03:49:56.770Z,8.07
2022-10-23T03:54:58.140Z,8.13
2022-10-23T03:57:26.691Z,8.20
2022-10-23T03:59:54.813Z,8.05
2022-10-23T04:02:23.017Z,7.40
2022-10-23T04:04:51.194Z,7.75
2022-10-23T04:07:20.652Z,7.55
2022-10-23T04:09:48.716Z,7.85
2022-10-23T04:12:16.930Z,7.97
2022-10-23T04:14:45.060Z,7.60
2022-10-23T04:17:13.104Z,7.63
2022-10-23T04:19:41.094Z,7.88
2022-10-23T04:22:09.192Z,8.45
2022-10-23T04:24:38.607Z,9.23
2022-10-23T04:27:06.780Z,8.13
2022-10-23T04:29:34.772Z,9.45
2022-10-23T04:32:03.239Z,8.05
2022-10-23T04:34:31.255Z,8.45
2022-10-23T04:36:59.569Z,9.32
2022-10-23T04:39:27.650Z,8.85
2022-10-23T04:41:57.281Z,8.10
2022-10-23T04:44:25.362Z,8.57
2022-10-23T04:46:53.805Z,7.45
2022-10-23T04:49:21.986Z,8.75
2022-10-23T04:51:50.073Z,8.20
2022-10-23T04:54:18.145Z,8.00
2022-10-23T04:56:46.186Z,7.63
2022-10-23T04:59:15.614Z,7.55
2022-10-23T05:01:43.718Z,7.35
2022-10-23T05:04:11.963Z,8.27
2022-10-23T05:06:39.970Z,7.47
2022-10-23T05:09:08.310Z,7.75
2022-10-23T05:11:36.689Z,7.38
2022-10-23T05:14:04.713Z,7.85
2022-10-23T05:16:43.852Z,6.53
2022-10-23T05:19:22.023Z,7.27
2022-10-23T05:21:56.068Z,7.13
2022-10-23T05:24:24.479Z,7.13
2022-10-23T05:26:53.796Z,6.95
2022-10-23T05:29:22.135Z,6.85
2022-10-23T05:31:55.749Z,7.00
2022-10-23T05:34:26.805Z,6.53
2022-10-23T05:36:55.797Z,7.45
2022-10-23T05:39:25.208Z,7.78
2022-10-23T05:41:55.104Z,8.00
2022-10-23T05:44:23.259Z,8.13
2022-10-23T05:46:52.842Z,7.57
2022-10-23T05:49:20.932Z,7.53
2022-10-23T05:51:48.979Z,7.32
2022-10-23T05:54:17.173Z,7.47
2022-10-23T05:56:45.185Z,7.78
2022-10-23T05:59:13.276Z,7.70
2022-10-23T06:01:41.426Z,7.93
2022-10-23T06:04:10.999Z,8.00
2022-10-23T06:06:39.119Z,8.95
2022-10-23T06:09:07.259Z,8.52
2022-10-23T06:11:35.243Z,7.57
2022-10-23T06:14:03.298Z,8.73
2022-10-23T06:16:31.364Z,8.00
2022-10-23T06:19:00.253Z,8.10
2022-10-23T06:21:29.993Z,7.22
2022-10-23T06:23:58.083Z,7.70
2022-10-23T06:26:26.189Z,7.30
2022-10-23T06:28:54.668Z,7.32
2022-10-23T06:31:26.826Z,7.88
2022-10-23T06:33:56.031Z,7.60
2022-10-23T06:36:24.419Z,7.35
2022-10-23T06:38:56.370Z,8.93
2022-10-23T06:41:24.590Z,7.72
2022-10-23T06:43:53.413Z,7.68
2022-10-23T06:46:22.063Z,7.88
2022-10-23T06:48:50.181Z,7.78
2022-10-23T06:51:19.156Z,7.82
2022-10-23T06:53:47.611Z,7.95
2022-10-23T06:56:17.268Z,7.68
2022-10-23T06:58:45.270Z,8.38
2022-10-23T07:01:16.308Z,7.65
2022-10-23T07:03:45.055Z,7.68
2022-10-23T07:06:13.227Z,8.05
2022-10-23T07:08:41.677Z,7.80
2022-10-23T07:11:11.401Z,7.70
2022-10-23T07:13:42.725Z,7.95
2022-10-23T07:16:13.466Z,8.25
2022-10-23T07:18:41.618Z,7.43
2022-10-23T07:21:09.989Z,8.13
2022-10-23T07:23:37.970Z,8.50
2022-10-23T07:26:08.300Z,8.10
2022-10-23T07:28:36.843Z,7.88
2022-10-23T07:31:06.641Z,7.20
2022-10-23T07:33:34.884Z,6.82
2022-10-23T07:36:05.846Z,7.20
2022-10-23T07:38:33.881Z,7.53
2022-10-23T07:41:02.961Z,6.75
2022-10-23T07:46:00.303Z,6.70
2022-10-23T07:48:31.017Z,6.95
2022-10-23T07:51:01.030Z,6.80
2022-10-23T07:53:30.044Z,6.72
2022-10-23T07:56:00.015Z,7.22
2022-10-23T07:58:29.160Z,6.47
2022-10-23T08:01:02.530Z,6.53
2022-10-23T08:03:34.069Z,6.88
2022-10-23T08:06:02.135Z,6.18
2022-10-23T08:08:30.127Z,6.50
2022-10-23T08:10:58.583Z,6.07
2022-10-23T08:13:26.611Z,6.38
2022-10-23T08:15:55.987Z,6.20
2022-10-23T08:18:24.031Z,6.47
2022-10-23T08:20:53.631Z,5.82
2022-10-23T08:23:24.106Z,6.07
2022-10-23T08:25:58.635Z,5.78
2022-10-23T08:28:26.888Z,6.50
2022-10-23T08:30:54.959Z,6.05
2022-10-23T08:33:23.720Z,5.93
2022-10-23T08:35:53.261Z,5.32
2022-10-23T08:38:21.557Z,5.60
2022-10-23T08:40:50.446Z,5.35
2022-10-23T08:43:24.270Z,5.47
2022-10-23T08:45:56.454Z,5.68
2022-10-23T08:48:30.450Z,5.80
2022-10-23T08:51:07.367Z,5.13
2022-10-23T08:53:42.275Z,5.72
2022-10-23T08:56:15.431Z,5.28
2022-10-23T08:58:48.286Z,5.57
2022-10-23T09:01:31.943Z,5.47
2022-10-23T09:04:00.752Z,5.13
2022-10-23T09:06:40.473Z,5.57
2022-10-23T09:09:39.519Z,5.70
2022-10-23T09:12:15.290Z,5.57
2022-10-23T09:15:04.061Z,5.15
2022-10-23T09:17:34.571Z,5.18
2022-10-23T09:20:14.076Z,5.10
2022-10-23T09:22:44.390Z,5.47
2022-10-23T09:25:17.418Z,5.43
2022-10-23T09:27:51.874Z,5.60
2022-10-23T09:30:35.562Z,5.28
2022-10-23T09:33:15.702Z,4.72
2022-10-23T09:35:57.908Z,5.07
2022-10-23T09:38:34.004Z,4.93
2022-10-23T09:41:07.356Z,4.78
2022-10-23T09:43:35.583Z,5.22
2022-10-23T09:46:06.378Z,4.82
2022-10-23T09:48:35.805Z,4.63
2022-10-23T09:51:06.013Z,4.95
2022-10-23T09:53:38.965Z,4.40
2022-10-23T09:56:25.125Z,4.72
2022-10-23T09:58:57.152Z,4.43
2022-10-23T10:01:26.870Z,4.93
2022-10-23T10:03:55.366Z,4.22
2022-10-23T10:06:28.838Z,4.90
2022-10-23T10:09:00.097Z,4.65
2022-10-23T10:11:35.206Z,4.88
2022-10-23T10:14:21.033Z,4.90
2022-10-23T10:16:53.137Z,4.80
2022-10-23T10:19:35.240Z,4.35
2022-10-23T10:22:12.965Z,3.95
2022-10-23T10:24:53.100Z,4.20
2022-10-23T10:27:36.501Z,4.10
2022-10-23T10:30:11.809Z,3.53
2022-10-23T10:32:44.677Z,4.05
2022-10-23T10:38:15.249Z,3.65
2022-10-23T10:41:01.882Z,3.72
2022-10-23T10:43:37.975Z,3.97
2022-10-23T10:46:13.609Z,4.07
2022-10-23T10:48:49.370Z,4.28
2022-10-23T10:51:26.190Z,3.67
2022-10-23T10:54:05.117Z,3.83
2022-10-23T10:56:39.872Z,4.00
2022-10-23T10:59:17.396Z,4.00
2022-10-23T11:01:51.837Z,3.60
2022-10-23T11:04:33.269Z,3.88
2022-10-23T11:07:07.885Z,3.75
2022-10-23T11:09:36.152Z,3.08
2022-10-23T11:12:05.976Z,3.45
2022-10-23T11:14:35.620Z,3.50
2022-10-23T11:17:10.381Z,3.13
2022-10-23T11:19:44.952Z,3.13
2022-10-23T11:22:23.141Z,3.28
2022-10-23T11:25:22.590Z,3.50
2022-10-23T11:28:31.693Z,3.47
2022-10-23T11:31:15.342Z,3.40
2022-10-23T11:34:21.962Z,3.30
2022-10-23T11:36:54.323Z,3.50
2022-10-23T11:39:25.148Z,3.20
2022-10-23T11:41:56.189Z,3.42
2022-10-23T11:44:43.624Z,2.78
2022-10-23T11:47:36.456Z,3.30
2022-10-23T11:50:16.441Z,3.20
2022-10-23T11:53:12.888Z,3.47
2022-10-23T11:55:58.827Z,3.00
2022-10-23T11:58:32.105Z,3.25
2022-10-23T12:01:18.254Z,3.15
2022-10-23T12:03:53.343Z,3.20
2022-10-23T12:06:26.542Z,3.20
2022-10-23T12:08:58.996Z,3.33
2022-10-23T12:11:40.112Z,3.33
2022-10-23T12:14:26.851Z,2.78
2022-10-23T12:16:56.659Z,3.33
2022-10-23T12:19:26.640Z,3.20
2022-10-23T12:21:56.572Z,3.25
2022-10-23T12:24:40.467Z,3.33
2022-10-23T12:27:29.787Z,3.65
2022-10-23T12:30:20.197Z,3.50
2022-10-23T12:33:14.504Z,3.35
2022-10-23T12:36:18.402Z,3.08
2022-10-23T12:38:49.809Z,3.28
2022-10-23T12:41:25.468Z,2.80
2022-10-23T12:43:57.113Z,3.30
2022-10-23T12:46:34.176Z,2.95
2022-10-23T12:49:14.196Z,2.90
2022-10-23T12:51:42.587Z,2.97
2022-10-23T12:54:17.131Z,3.08
2022-10-23T12:56:45.466Z,3.05
2022-10-23T12:59:18.203Z,2.80
2022-10-23T13:04:29.464Z,3.17
2022-10-23T13:06:59.865Z,3.00
2022-10-23T13:09:32.708Z,2.75
2022-10-23T13:14:34.311Z,2.60
2022-10-23T13:17:06.228Z,2.88
2022-10-23T13:19:36.183Z,2.90
2022-10-23T13:22:06.157Z,2.83
2022-10-23T13:24:34.280Z,3.00
2022-10-23T13:27:02.314Z,2.70
2022-10-23T13:29:33.015Z,2.60
2022-10-23T13:32:11.441Z,2.58
2022-10-23T13:34:41.178Z,2.90
2022-10-23T13:37:24.814Z,2.50
2022-10-23T13:40:02.030Z,2.55
2022-10-23T13:42:30.101Z,2.60
2022-10-23T13:44:58.187Z,2.70
2022-10-23T13:47:26.238Z,2.42
2022-10-23T13:49:55.673Z,2.20
2022-10-23T13:52:24.548Z,2.50
2022-10-23T13:54:52.613Z,2.47
2022-10-23T13:57:20.655Z,2.80
2022-10-23T13:59:48.688Z,2.25
2022-10-23T14:02:21.512Z,2.55
2022-10-23T14:04:49.973Z,2.33
2022-10-23T14:07:19.483Z,2.33
2022-10-23T14:09:48.481Z,2.15
2022-10-23T14:12:18.404Z,2.30
2022-10-23T14:14:46.388Z,2.15
2022-10-23T14:17:14.497Z,1.92
2022-10-23T14:19:42.522Z,1.88
2022-10-23T14:22:10.776Z,1.88
2022-10-23T14:24:40.321Z,2.70
2022-10-23T14:27:08.700Z,2.42
2022-10-23T14:29:36.812Z,2.10
2022-10-23T14:32:05.437Z,2.30
2022-10-23T14:34:33.889Z,2.20
2022-10-23T14:37:08.929Z,1.95
2022-10-23T14:39:37.501Z,2.20
2022-10-23T14:42:07.014Z,2.15
2022-10-23T14:44:35.146Z,2.45
2022-10-23T14:47:03.192Z,2.28
2022-10-23T14:49:31.318Z,2.78
2022-10-23T14:51:59.824Z,2.25
2022-10-23T14:54:29.372Z,2.38
2022-10-23T14:56:57.490Z,2.40
2022-10-23T14:59:27.090Z,2.50
2022-10-23T15:01:55.389Z,2.13
2022-10-23T15:04:25.834Z,2.58
2022-10-23T15:06:55.070Z,2.80
2022-10-23T15:09:23.367Z,2.40
2022-10-23T15:11:51.413Z,2.97
2022-10-23T15:14:20.061Z,2.60
2022-10-23T15:16:49.773Z,2.40
2022-10-23T15:19:18.809Z,2.47
2022-10-23T15:21:47.626Z,2.55
2022-10-23T15:24:15.874Z,2.80
2022-10-23T15:26:44.552Z,2.67
2022-10-23T15:29:14.724Z,2.35
2022-10-23T15:31:45.841Z,2.63
2022-10-23T15:34:18.687Z,2.50
2022-10-23T15:39:18.906Z,2.70
2022-10-23T15:41:47.249Z,2.80
2022-10-23T15:44:17.894Z,2.72
2022-10-23T15:46:46.059Z,2.70
2022-10-23T15:49:16.520Z,2.45
2022-10-23T15:51:45.316Z,2.35
2022-10-23T15:54:18.425Z,2.80
2022-10-23T15:59:15.055Z,2.83
2022-10-23T16:01:43.678Z,2.83
2022-10-23T16:04:12.206Z,3.35
2022-10-23T16:06:41.753Z,3.33
2022-10-23T16:09:09.879Z,3.13
2022-10-23T16:11:39.186Z,3.20
2022-10-23T16:14:08.134Z,3.50
2022-10-23T16:16:36.402Z,3.58
2022-10-23T16:19:05.860Z,2.97
2022-10-23T16:21:35.997Z,3.15
2022-10-23T16:24:07.849Z,2.92
2022-10-23T16:26:36.869Z,2.88
2022-10-23T16:29:07.703Z,3.30
2022-10-23T16:31:36.337Z,3.70
2022-10-23T16:34:05.961Z,3.13
2022-10-23T16:36:34.598Z,3.00
2022-10-23T16:39:04.987Z,3.47
2022-10-23T16:41:33.692Z,3.50
2022-10-23T16:44:02.214Z,3.55
2022-10-23T16:46:30.558Z,3.47
2022-10-23T16:48:59.046Z,2.88
2022-10-23T16:51:28.112Z,3.30
2022-10-23T16:53:56.955Z,4.18
2022-10-23T16:56:30.207Z,3.38
2022-10-23T17:01:34.229Z,3.90
2022-10-23T17:04:02.467Z,3.80
2022-10-23T17:06:33.014Z,3.75
2022-10-23T17:09:02.425Z,3.60
2022-10-23T17:11:33.589Z,4.13
2022-10-23T17:14:03.987Z,4.05
2022-10-23T17:16:35.067Z,3.83
2022-10-23T17:19:11.800Z,3.53
2022-10-23T17:21:49.483Z,4.25
2022-10-23T17:24:18.337Z,5.00
2022-10-23T17:26:48.426Z,3.65
2022-10-23T17:29:17.335Z,4.38
2022-10-23T17:31:47.426Z,4.13
2022-10-23T17:34:18.849Z,4.10
2022-10-23T17:36:49.272Z,3.13
2022-10-23T17:39:20.211Z,3.63
2022-10-23T17:41:50.498Z,3.63
2022-10-23T17:44:18.744Z,3.67
2022-10-23T17:46:46.825Z,3.75
2022-10-23T17:49:14.951Z,3.42
2022-10-23T17:51:43.355Z,3.20
2022-10-23T17:54:14.685Z,3.50
2022-10-23T17:56:42.874Z,3.63
2022-10-23T17:59:15.232Z,3.80
2022-10-23T18:01:44.546Z,3.03
2022-10-23T18:04:12.726Z,3.58
2022-10-23T18:06:45.973Z,3.70
2022-10-23T18:09:14.262Z,3.55
2022-10-23T18:11:48.373Z,3.45
2022-10-23T18:14:19.715Z,3.10
2022-10-23T18:16:48.142Z,3.50
2022-10-23T18:19:18.123Z,3.58
2022-10-23T18:21:46.434Z,2.95
2022-10-23T18:24:15.105Z,3.40
2022-10-23T18:26:44.196Z,3.28
2022-10-23T18:29:13.576Z,3.53
2022-10-23T18:31:44.036Z,3.53
2022-10-23T18:34:16.404Z,3.67
2022-10-23T18:36:48.961Z,3.65
2022-10-23T18:39:20.337Z,3.45
2022-10-23T18:41:50.163Z,3.50
2022-10-23T18:44:20.601Z,4.32
2022-10-23T18:46:51.808Z,3.38
2022-10-23T18:49:20.773Z,3.20
2022-10-23T18:51:49.986Z,3.40
2022-10-23T18:54:19.566Z,3.40
2022-10-23T18:56:48.416Z,2.90
2022-10-23T18:59:18.504Z,3.03
2022-10-23T19:01:46.935Z,3.40
2022-10-23T19:04:18.049Z,3.40
2022-10-23T19:06:47.259Z,3.45
2022-10-23T19:09:15.725Z,2.92
2022-10-23T19:11:45.257Z,2.75
2022-10-23T19:14:13.748Z,2.80
2022-10-23T19:16:47.011Z,3.30
2022-10-23T19:19:20.731Z,3.33
2022-10-23T19:21:50.102Z,3.17
2022-10-23T19:24:24.156Z,3.00
2022-10-23T19:26:55.802Z,2.85
2022-10-23T19:29:27.205Z,2.83
2022-10-23T19:31:55.539Z,2.88
2022-10-23T19:34:25.942Z,2.70
2022-10-23T19:36:54.881Z,3.53
2022-10-23T19:39:23.435Z,2.83
2022-10-23T19:41:51.977Z,2.65
2022-10-23T19:44:21.642Z,2.80
2022-10-23T19:46:50.310Z,2.85
2022-10-23T19:49:19.254Z,2.83
2022-10-23T19:51:51.339Z,3.00
2022-10-23T19:54:20.382Z,3.28
2022-10-23T19:56:48.932Z,2.40
2022-10-23T19:59:17.801Z,2.53
2022-10-23T20:01:48.078Z,2.75
2022-10-23T20:04:18.015Z,2.60
2022-10-23T20:06:49.991Z,2.40
2022-10-23T20:09:18.309Z,2.97
2022-10-23T20:11:46.475Z,2.95
2022-10-23T20:14:14.645Z,3.22
2022-10-23T20:16:46.820Z,3.00
2022-10-23T20:21:52.721Z,2.20
2022-10-23T20:24:21.943Z,2.25
2022-10-23T20:26:52.214Z,2.33
2022-10-23T20:29:20.458Z,1.95
2022-10-23T20:31:49.297Z,2.10
2022-10-23T20:34:20.493Z,2.03
2022-10-23T20:36:50.249Z,2.05
2022-10-23T20:39:21.270Z,1.98
2022-10-23T20:41:49.367Z,2.03
2022-10-23T20:44:18.638Z,1.83
2022-10-23T20:46:47.365Z,1.73
2022-10-23T20:49:18.093Z,1.30
2022-10-23T20:51:46.229Z,1.60
2022-10-23T20:54:14.284Z,1.48
2022-10-23T20:56:43.681Z,1.35
2022-10-23T20:59:13.880Z,1.50
2022-10-23T21:01:44.191Z,1.00
2022-10-23T21:04:13.967Z,1.20
2022-10-23T21:07:04.491Z,1.00
2022-10-23T21:09:31.459Z,1.10
2022-10-23T21:12:00.879Z,1.00
2022-10-23T21:14:28.919Z,1.42
2022-10-23T21:16:56.980Z,1.27
2022-10-23T21:19:25.019Z,1.20
2022-10-23T21:21:53.178Z,1.10
2022-10-23T21:24:21.254Z,1.20
2022-10-23T21:26:49.362Z,1.00
2022-10-23T21:29:20.154Z,1.63
2022-10-23T21:31:53.720Z,1.17
2022-10-23T21:37:11.230Z,1.13
2022-10-23T21:39:37.669Z,1.10
2022-10-23T21:42:06.114Z,1.40
2022-10-23T21:44:35.657Z,1.48
2022-10-23T21:47:03.707Z,1.23
2022-10-23T21:49:31.796Z,1.20
2022-10-23T21:51:59.872Z,1.42
2022-10-23T21:54:27.999Z,1.27
2022-10-23T21:56:56.078Z,1.80
2022-10-23T21:59:28.956Z,1.40
2022-10-23T22:02:00.497Z,1.35
2022-10-23T22:04:28.631Z,1.50
2022-10-23T22:06:59.226Z,1.83
2022-10-23T22:09:27.330Z,1.50
2022-10-23T22:11:56.201Z,1.42
2022-10-23T22:14:24.842Z,2.20
2022-10-23T22:16:53.299Z,2.83
2022-10-23T22:19:23.603Z,2.60
2022-10-23T22:21:52.510Z,2.40
2022-10-23T22:24:20.932Z,2.08
2022-10-23T22:26:52.206Z,2.25
2022-10-23T22:29:22.881Z,2.42
2022-10-23T22:31:51.967Z,2.13
2022-10-23T22:37:12.169Z,2.67
2022-10-23T22:39:41.209Z,2.15
2022-10-23T22:42:09.257Z,2.28
2022-10-23T22:44:37.313Z,2.40
2022-10-23T22:47:06.365Z,2.20
2022-10-23T22:49:35.918Z,2.28
2022-10-23T22:52:04.153Z,2.40
2022-10-23T22:54:32.410Z,2.92
2022-10-23T22:57:00.439Z,2.20
2022-10-23T22:59:28.523Z,2.83
2022-10-23T23:01:56.678Z,2.90
2022-10-23T23:04:40.050Z,2.05
2022-10-23T23:07:12.413Z,2.15
2022-10-23T23:09:42.555Z,2.30
2022-10-23T23:12:12.650Z,2.05
2022-10-23T23:14:41.253Z,2.83
2022-10-23T23:17:10.069Z,2.72
2022-10-23T23:19:38.580Z,2.53
2022-10-23T23:22:07.030Z,2.80
2022-10-23T23:24:36.626Z,2.53
2022-10-23T23:27:04.807Z,2.80
2022-10-23T23:29:33.318Z,2.45
2022-10-23T23:32:06.100Z,2.65
2022-10-23T23:34:34.215Z,2.55
2022-10-23T23:37:02.211Z,2.92
2022-10-23T23:39:30.374Z,2.90
2022-10-23T23:41:59.831Z,3.00
2022-10-23T23:44:27.919Z,2.58
2022-10-23T23:46:56.034Z,3.17
2022-10-23T23:49:24.104Z,2.55
2022-10-23T23:51:52.222Z,2.58
2022-10-23T23:54:20.291Z,2.58
2022-10-23T23:56:48.418Z,2.97
2022-10-23T23:59:17.762Z,2.85
